Time;durP1;ratioP1;P1;durP2;ratioP2;P2;SDS_P1;SDS_P2;PMS_P1;PMS_P2;Temp;Humidity;BMP_temperature;BMP_pressure;BME280_temperature;BME280_humidity;BME280_pressure;Samples;Min_cycle;Max_cycle;Signal;HPM_P1;HPM_P2
2022/02/02 00:00:41;;;;;;;11.30;2.25;;;8.20;91.60;;;;;;4998231;28;20058;-91
2022/02/02 00:03:10;;;;;;;16.55;2.63;;;8.20;91.60;;;;;;4981722;28;20046;-91
2022/02/02 00:08:15;;;;;;;14.03;2.60;;;8.20;91.60;;;;;;4998548;28;20100;-90
2022/02/02 00:11:20;;;;;;;13.07;3.03;;;8.30;91.70;;;;;;4997404;28;20038;-90
2022/02/02 00:18:55;;;;;;;17.92;2.72;;;8.30;91.70;;;;;;4998953;28;20072;-83
2022/02/02 00:21:39;;;;;;;17.10;3.45;;;8.30;91.70;;;;;;4981463;28;20095;-83
2022/02/02 00:24:18;;;;;;;16.77;3.10;;;8.30;91.70;;;;;;4982269;28;20136;-82
2022/02/02 00:26:56;;;;;;;16.90;3.05;;;8.20;91.80;;;;;;5013662;28;20508;-84
2022/02/02 00:29:30;;;;;;;17.13;2.75;;;8.20;91.80;;;;;;4980660;28;20049;-84
2022/02/02 00:32:07;;;;;;;16.20;2.70;;;8.20;91.90;;;;;;4981539;28;20504;-84
2022/02/02 00:34:34;;;;;;;9.88;1.95;;;8.20;91.90;;;;;;4996195;28;20049;-84
2022/02/02 00:37:02;;;;;;;13.52;1.83;;;8.20;91.90;;;;;;4996691;28;20046;-84
2022/02/02 00:39:32;;;;;;;11.73;2.03;;;8.10;92.00;;;;;;4995887;28;20057;-85
2022/02/02 00:42:00;;;;;;;11.88;2.05;;;8.10;92.10;;;;;;4996122;28;20046;-90
2022/02/02 00:44:27;;;;;;;16.52;2.78;;;8.10;92.20;;;;;;5013344;28;20070;-90
2022/02/02 00:46:56;;;;;;;16.58;3.13;;;8.10;92.20;;;;;;4997130;28;20492;-88
2022/02/02 00:49:23;;;;;;;9.40;1.80;;;8.10;92.20;;;;;;4997646;28;20053;-89
2022/02/02 00:51:53;;;;;;;8.05;1.67;;;8.20;92.20;;;;;;4981267;28;20140;-89
2022/02/02 00:54:25;;;;;;;15.18;3.17;;;8.20;92.20;;;;;;4997800;28;20092;-89
2022/02/02 00:56:53;;;;;;;17.80;3.17;;;8.30;92.20;;;;;;4997189;28;20049;-88
2022/02/02 00:59:24;;;;;;;19.15;2.58;;;8.40;92.10;;;;;;5013156;28;20137;-85
2022/02/02 01:01:52;;;;;;;14.55;3.55;;;8.40;92.10;;;;;;4980812;28;20101;-88
2022/02/02 01:04:26;;;;;;;21.42;3.33;;;8.40;92.00;;;;;;4996144;28;20056;-88
2022/02/02 01:07:11;;;;;;;14.20;3.03;;;8.40;92.00;;;;;;5012651;28;20077;-92
2022/02/02 01:09:52;;;;;;;14.73;2.77;;;8.50;92.00;;;;;;4953570;28;20058;-89
2022/02/02 01:20:32;;;;;;;14.73;3.25;;;8.50;92.10;;;;;;5012309;28;20046;-82
2022/02/02 01:28:43;;;;;;;15.70;3.10;;;8.50;91.90;;;;;;4999177;28;20042;-87
2022/02/02 01:31:15;;;;;;;10.82;2.15;;;8.50;91.90;;;;;;4996781;28;20060;-90
2022/02/02 01:33:47;;;;;;;14.02;2.85;;;8.40;92.00;;;;;;4977726;28;20137;-88
2022/02/02 01:36:15;;;;;;;21.38;4.18;;;8.40;92.00;;;;;;5012644;28;20481;-83
2022/02/02 01:38:44;;;;;;;22.83;4.95;;;8.40;91.90;;;;;;5015518;28;20033;-87
2022/02/02 01:41:20;;;;;;;16.70;3.08;;;8.30;91.90;;;;;;5015864;28;20494;-87
2022/02/02 01:44:02;;;;;;;21.70;3.67;;;8.30;92.00;;;;;;5016183;28;20081;-87
2022/02/02 01:46:33;;;;;;;16.75;3.00;;;8.30;92.00;;;;;;5002279;28;20081;-83
2022/02/02 01:50:01;;;;;;;20.60;4.50;;;8.30;92.00;;;;;;5016331;28;20038;-83
2022/02/02 01:54:48;;;;;;;21.10;3.28;;;8.20;92.00;;;;;;5008197;28;20039;-83
2022/02/02 01:59:56;;;;;;;14.43;2.55;;;8.30;91.90;;;;;;5011743;28;20410;-83
2022/02/02 02:02:25;;;;;;;22.75;3.72;;;8.30;92.10;;;;;;4966311;28;20058;-83
2022/02/02 02:04:52;;;;;;;13.23;3.00;;;8.40;91.80;;;;;;4996393;28;20140;-83
2022/02/02 02:07:22;;;;;;;15.40;2.53;;;8.40;91.80;;;;;;4977872;28;20053;-83
2022/02/02 02:09:49;;;;;;;19.90;2.90;;;8.40;91.90;;;;;;4991393;28;20052;-83
2022/02/02 02:12:16;;;;;;;19.60;3.67;;;8.30;91.90;;;;;;5006246;28;20051;-84
2022/02/02 02:17:14;;;;;;;18.23;4.05;;;8.30;91.70;;;;;;4998682;28;20046;-83
2022/02/02 02:19:48;;;;;;;17.33;4.03;;;8.30;91.80;;;;;;5014725;28;20077;-82
2022/02/02 02:22:25;;;;;;;18.90;3.15;;;8.20;91.80;;;;;;4987454;28;20076;-83
2022/02/02 02:24:53;;;;;;;24.95;4.45;;;8.30;91.80;;;;;;4995292;28;20410;-83
2022/02/02 02:27:23;;;;;;;19.98;4.07;;;8.30;91.80;;;;;;4981988;28;20104;-83
2022/02/02 02:30:07;;;;;;;16.27;2.92;;;8.40;91.80;;;;;;4998184;28;20046;-84
2022/02/02 02:35:41;;;;;;;13.93;2.63;;;8.40;91.80;;;;;;5024630;28;20050;-84
2022/02/02 02:57:42;;;;;;;13.75;2.33;;;8.20;91.90;;;;;;4997309;28;20126;-83
2022/02/02 03:30:35;;;;;;;11.40;1.85;;;8.10;92.00;;;;;;5007627;28;20506;-82
2022/02/02 03:55:18;;;;;;;15.63;2.22;;;8.10;92.10;;;;;;5026852;28;20461;-84
2022/02/02 03:58:08;;;;;;;11.95;2.42;;;8.10;92.00;;;;;;5006844;28;20042;-83
2022/02/02 04:00:55;;;;;;;10.32;2.15;;;8.10;92.00;;;;;;4992618;28;20053;-83
2022/02/02 04:04:28;;;;;;;16.45;3.08;;;8.10;92.00;;;;;;4990799;28;20418;-83
2022/02/02 04:06:20;;;;;;;13.02;2.20;;;8.10;91.90;;;;;;4980353;28;20046;-83
2022/02/02 04:08:49;;;;;;;17.20;2.67;;;8.10;91.80;;;;;;5008567;28;20081;-83
2022/02/02 04:11:31;;;;;;;12.98;2.42;;;8.20;91.70;;;;;;5009088;28;20042;-83
2022/02/02 04:53:35;;;;;;;10.05;1.08;;;8.40;91.30;;;;;;4993019;28;20389;-83
2022/02/02 05:45:29;;;;;;;18.77;2.67;;;8.50;91.20;;;;;;4998085;28;20056;-86
2022/02/02 05:53:25;;;;;;;9.45;1.90;;;8.30;91.30;;;;;;4998284;28;20046;-86
2022/02/02 05:55:53;;;;;;;11.70;1.63;;;8.20;91.40;;;;;;4964550;28;20046;-88
2022/02/02 05:58:30;;;;;;;12.82;1.98;;;8.20;91.70;;;;;;4980921;28;20046;-86
2022/02/02 06:00:59;;;;;;;8.52;1.35;;;8.10;91.50;;;;;;4995765;28;20042;-85
2022/02/02 06:03:35;;;;;;;8.65;1.42;;;8.10;91.50;;;;;;4979788;28;20042;-85
2022/02/02 06:06:02;;;;;;;11.07;1.63;;;8.10;91.60;;;;;;4995471;28;20049;-85
2022/02/02 06:08:30;;;;;;;12.27;2.40;;;8.10;91.60;;;;;;4979194;28;20120;-85
2022/02/02 06:11:03;;;;;;;6.78;1.60;;;8.10;91.60;;;;;;4995813;28;20053;-85
2022/02/02 06:13:45;;;;;;;6.28;1.55;;;8.10;91.60;;;;;;4964260;28;20081;-85
2022/02/02 06:16:14;;;;;;;6.00;1.05;;;8.10;91.60;;;;;;4965916;28;20048;-85
2022/02/02 06:18:42;;;;;;;10.65;1.25;;;8.00;91.60;;;;;;4964579;28;20038;-86
2022/02/02 06:21:10;;;;;;;10.32;1.58;;;8.00;91.70;;;;;;4948203;28;20046;-87
2022/02/02 06:23:47;;;;;;;9.68;2.22;;;8.00;91.70;;;;;;4998504;28;20042;-86
2022/02/02 06:26:17;;;;;;;12.43;2.67;;;8.00;91.80;;;;;;4983691;28;20046;-86
2022/02/02 06:28:50;;;;;;;14.73;3.13;;;7.90;91.70;;;;;;4984204;28;20414;-87
2022/02/02 06:31:23;;;;;;;14.65;2.80;;;8.00;91.70;;;;;;4982772;28;20045;-87
2022/02/02 06:33:59;;;;;;;18.35;3.10;;;8.00;91.70;;;;;;4999381;28;20069;-86
2022/02/02 06:36:29;;;;;;;18.98;3.58;;;7.90;92.00;;;;;;4968027;28;20046;-86
2022/02/02 06:38:57;;;;;;;18.45;3.13;;;8.00;92.00;;;;;;4983207;28;20049;-86
2022/02/02 06:41:27;;;;;;;13.65;3.30;;;7.90;91.70;;;;;;4983126;28;20034;-86
2022/02/02 06:43:54;;;;;;;11.45;1.92;;;7.90;91.70;;;;;;4999447;28;20121;-85
2022/02/02 06:46:29;;;;;;;10.63;1.85;;;7.90;91.80;;;;;;4982325;28;20112;-87
2022/02/02 06:48:59;;;;;;;15.90;2.28;;;7.90;91.80;;;;;;4967568;28;20085;-86
2022/02/02 06:51:40;;;;;;;14.13;2.70;;;7.90;91.70;;;;;;4982371;28;20061;-86
2022/02/02 06:54:28;;;;;;;20.40;4.47;;;7.90;91.60;;;;;;4967867;28;20081;-86
2022/02/02 06:57:18;;;;;;;15.27;3.00;;;7.90;91.60;;;;;;4983047;28;20379;-86
2022/02/02 07:00:35;;;;;;;15.95;3.22;;;7.80;91.60;;;;;;4982583;28;20050;-85
2022/02/02 07:03:01;;;;;;;14.82;2.95;;;7.80;91.60;;;;;;4995126;28;20108;-85
2022/02/02 07:08:34;;;;;;;13.57;3.80;;;7.70;91.60;;;;;;4999205;28;20058;-86
2022/02/02 07:27:09;;;;;;;11.65;2.58;;;7.70;91.50;;;;;;4981783;28;20556;-84
2022/02/02 07:29:40;;;;;;;17.67;2.63;;;7.70;91.40;;;;;;4985180;28;20045;-84
2022/02/02 07:35:04;;;;;;;17.20;2.90;;;7.60;91.50;;;;;;4996348;28;20068;-84
2022/02/02 07:37:37;;;;;;;10.25;2.67;;;7.60;91.50;;;;;;4997013;28;20065;-83
2022/02/02 07:40:08;;;;;;;11.07;1.60;;;7.60;91.60;;;;;;4981066;28;20061;-86
2022/02/02 07:42:41;;;;;;;11.35;1.65;;;7.60;91.60;;;;;;4981631;28;20042;-84
2022/02/02 07:45:12;;;;;;;8.98;1.50;;;7.60;91.50;;;;;;4996649;28;20050;-84
2022/02/02 07:47:46;;;;;;;9.20;1.92;;;7.60;91.50;;;;;;4980992;28;20062;-83
2022/02/02 07:50:15;;;;;;;8.05;2.03;;;7.60;91.50;;;;;;4997158;28;20145;-85
2022/02/02 07:52:44;;;;;;;11.48;1.58;;;7.60;91.50;;;;;;4996641;28;20053;-82
2022/02/02 07:55:13;;;;;;;10.48;1.98;;;7.70;91.50;;;;;;4996610;28;20046;-83
2022/02/02 07:57:43;;;;;;;8.25;1.35;;;7.70;91.40;;;;;;4948937;28;20046;-83
2022/02/02 08:00:17;;;;;;;7.05;1.35;;;7.80;91.40;;;;;;4964739;28;20046;-83
2022/02/02 08:05:34;;;;;;;6.70;0.88;;;7.80;91.40;;;;;;5014451;28;20041;-83
2022/02/02 08:10:49;;;;;;;4.82;0.77;;;7.90;91.50;;;;;;4969440;28;20053;-84
2022/02/02 08:13:37;;;;;;;7.05;0.93;;;7.90;91.50;;;;;;4964199;28;20383;-83
2022/02/02 08:16:11;;;;;;;9.40;1.60;;;8.00;91.50;;;;;;4996212;28;20049;-83
2022/02/02 08:18:41;;;;;;;12.45;1.33;;;8.00;91.40;;;;;;4979997;28;20046;-84
2022/02/02 08:21:08;;;;;;;14.25;2.55;;;8.00;91.40;;;;;;4980282;28;20056;-82
2022/02/02 08:23:36;;;;;;;7.18;1.70;;;8.10;91.40;;;;;;4980279;28;20069;-83
2022/02/02 08:26:10;;;;;;;8.80;1.58;;;8.00;91.40;;;;;;4980082;28;20069;-83
2022/02/02 08:28:38;;;;;;;10.38;1.67;;;8.10;91.40;;;;;;4981583;28;20049;-83
2022/02/02 08:31:06;;;;;;;7.95;1.25;;;8.10;91.40;;;;;;4996877;28;20120;-83
2022/02/02 08:33:39;;;;;;;9.50;1.55;;;8.10;91.50;;;;;;4997355;28;20509;-85
2022/02/02 08:36:12;;;;;;;10.18;2.33;;;8.10;91.40;;;;;;5015637;28;20501;-83
2022/02/02 08:41:15;;;;;;;7.47;1.02;;;8.20;91.40;;;;;;4995673;28;19925;-85
2022/02/02 08:43:55;;;;;;;6.13;1.48;;;8.20;91.70;;;;;;4950213;28;20046;-84
2022/02/02 08:46:47;;;;;;;6.97;1.00;;;8.20;91.50;;;;;;4965175;28;20054;-84
2022/02/02 08:49:15;;;;;;;8.40;1.17;;;8.20;91.50;;;;;;4996251;28;20045;-85
2022/02/02 08:51:45;;;;;;;7.70;1.30;;;8.10;91.50;;;;;;4980376;28;20050;-87
2022/02/02 09:01:50;;;;;;;5.38;1.08;;;8.10;91.70;;;;;;4996087;28;20084;-85
2022/02/02 09:07:04;;;;;;;10.13;1.50;;;8.30;91.60;;;;;;4982703;28;20046;-82
2022/02/02 09:09:48;;;;;;;6.97;1.25;;;8.40;91.50;;;;;;4979420;28;20073;-86
2022/02/02 09:34:05;;;;;;;6.15;1.50;;;8.90;91.10;;;;;;4981304;28;20046;-81
2022/02/02 09:36:36;;;;;;;7.57;2.30;;;8.90;91.10;;;;;;4979223;28;20053;-82
2022/02/02 09:39:12;;;;;;;5.32;1.38;;;8.90;91.20;;;;;;4994977;28;20041;-82
2022/02/02 09:42:03;;;;;;;6.95;1.00;;;8.90;91.20;;;;;;4979605;28;20077;-82
2022/02/02 09:44:37;;;;;;;12.00;1.42;;;8.90;91.10;;;;;;5011667;28;20049;-86
2022/02/02 09:47:22;;;;;;;10.40;1.52;;;9.00;91.10;;;;;;4980510;28;20151;-85
2022/02/02 09:52:24;;;;;;;19.67;2.80;;;9.00;91.00;;;;;;5009642;28;20050;-87
2022/02/02 09:55:08;;;;;;;10.10;1.75;;;8.90;91.00;;;;;;4961567;28;20043;-86
2022/02/02 10:06:05;;;;;;;13.00;2.45;;;9.10;91.40;;;;;;5006991;28;20039;-85
2022/02/02 10:12:30;;;;;;;19.10;2.42;;;9.10;91.10;;;;;;5009986;28;20095;-86
2022/02/02 10:14:25;;;;;;;8.73;1.70;;;9.10;91.10;;;;;;4993211;28;20073;-86
2022/02/02 10:16:56;;;;;;;10.50;1.40;;;9.20;91.10;;;;;;5012145;28;20120;-85
2022/02/02 10:19:25;;;;;;;6.80;1.67;;;9.30;91.10;;;;;;4982293;28;20046;-84
2022/02/02 10:21:53;;;;;;;14.32;2.95;;;9.30;91.00;;;;;;5006170;28;20112;-83
2022/02/02 10:24:46;;;;;;;10.93;2.05;;;9.40;91.00;;;;;;4993870;28;20104;-85
2022/02/02 10:27:35;;;;;;;13.45;1.58;;;9.40;90.90;;;;;;5012364;28;20071;-82
2022/02/02 10:30:21;;;;;;;14.75;2.65;;;9.30;91.00;;;;;;4992124;28;20050;-84
2022/02/02 10:32:51;;;;;;;8.05;1.55;;;9.30;90.90;;;;;;4987944;28;20136;-85
2022/02/02 10:35:38;;;;;;;10.95;1.95;;;9.30;91.00;;;;;;5009665;28;20065;-83
2022/02/02 10:38:27;;;;;;;12.65;1.80;;;9.40;90.90;;;;;;4997763;28;20041;-84
2022/02/02 10:41:44;;;;;;;8.93;1.50;;;9.50;90.70;;;;;;4993121;28;20512;-83
2022/02/02 10:44:17;;;;;;;12.65;2.88;;;9.50;90.70;;;;;;5010730;28;20047;-85
2022/02/02 10:46:57;;;;;;;6.88;1.98;;;9.60;90.60;;;;;;5002899;28;20054;-85
2022/02/02 10:49:45;;;;;;;7.90;1.23;;;9.70;90.70;;;;;;5004288;28;20127;-85
2022/02/02 11:06:38;;;;;;;7.38;2.40;;;9.90;90.50;;;;;;4987726;28;20047;-85
2022/02/02 11:09:10;;;;;;;10.00;1.70;;;10.00;90.40;;;;;;5000965;28;20035;-84
2022/02/02 11:11:46;;;;;;;11.93;2.15;;;10.10;90.20;;;;;;4985521;28;20042;-84
2022/02/02 11:14:34;;;;;;;18.08;4.30;;;10.10;90.00;;;;;;4995437;28;20042;-88
2022/02/02 11:17:09;;;;;;;11.27;2.38;;;10.20;89.90;;;;;;5001690;28;20034;-85
2022/02/02 11:19:40;;;;;;;9.80;1.73;;;10.20;90.00;;;;;;4992920;28;20069;-86
2022/02/02 11:22:20;;;;;;;7.22;1.83;;;10.10;90.00;;;;;;4963761;28;20046;-87
2022/02/02 11:24:48;;;;;;;13.57;3.08;;;10.20;90.00;;;;;;4998498;28;20061;-86
2022/02/02 11:27:35;;;;;;;8.55;1.63;;;10.20;89.60;;;;;;4982188;28;20069;-88
2022/02/02 11:30:29;;;;;;;18.67;3.50;;;10.30;89.60;;;;;;4995573;28;20516;-88
2022/02/02 11:33:13;;;;;;;9.15;2.30;;;10.40;89.20;;;;;;5005192;28;20041;-89
2022/02/02 11:35:51;;;;;;;11.85;2.78;;;10.50;89.00;;;;;;4995453;28;20068;-85
2022/02/02 11:38:30;;;;;;;11.23;2.70;;;10.50;88.90;;;;;;4991013;28;20046;-83
2022/02/02 11:43:58;;;;;;;6.75;1.42;;;10.50;88.70;;;;;;5020265;28;20050;-85
2022/02/02 11:47:07;;;;;;;6.28;1.42;;;10.40;88.90;;;;;;4991538;28;20046;-84
2022/02/02 11:49:55;;;;;;;12.20;2.28;;;10.20;89.30;;;;;;5001236;28;20045;-84
2022/02/02 11:52:45;;;;;;;12.75;1.65;;;10.10;89.00;;;;;;4995810;28;20060;-82
2022/02/02 11:55:13;;;;;;;10.27;2.35;;;10.00;89.30;;;;;;5017038;28;20087;-89
2022/02/02 11:58:01;;;;;;;9.68;2.13;;;9.90;89.60;;;;;;4987784;28;20054;-87
2022/02/02 12:00:44;;;;;;;8.52;2.42;;;9.80;89.60;;;;;;5014177;28;20042;-85
2022/02/02 12:03:27;;;;;;;10.75;2.38;;;9.80;89.70;;;;;;4999496;28;20049;-85
2022/02/02 12:06:31;;;;;;;7.78;1.30;;;9.90;89.50;;;;;;5013344;28;20137;-83
2022/02/02 12:09:28;;;;;;;7.68;1.80;;;10.00;89.50;;;;;;4998126;28;20069;-83
2022/02/02 12:47:02;;;;;;;7.90;1.05;;;9.90;86.80;;;;;;4975397;28;20050;-84
2022/02/02 12:57:41;;;;;;;;;;;9.90;86.80;;;;;;5012894;28;20104;-86
2022/02/02 13:00:20;;;;;;;4.50;0.55;;;9.80;86.90;;;;;;4995991;28;19932;-88
2022/02/02 13:02:49;;;;;;;2.47;0.55;;;9.80;87.10;;;;;;5013553;28;20325;-86
2022/02/02 13:05:24;;;;;;;4.72;0.70;;;9.80;87.20;;;;;;4980373;28;20138;-86
2022/02/02 13:08:01;;;;;;;2.90;0.57;;;9.80;87.20;;;;;;4980020;28;20042;-83
2022/02/02 13:10:31;;;;;;;3.10;0.68;;;9.80;87.20;;;;;;5003795;28;20482;-82
2022/02/02 13:13:26;;;;;;;8.15;0.93;;;9.80;87.00;;;;;;4990295;28;20042;-82
2022/02/02 13:16:16;;;;;;;5.50;0.70;;;9.80;86.50;;;;;;5009998;28;20041;-82
2022/02/02 13:18:50;;;;;;;6.10;1.10;;;9.80;86.70;;;;;;5012696;28;20054;-82
2022/02/02 13:21:25;;;;;;;6.78;0.90;;;9.70;86.70;;;;;;4984825;28;20050;-88
2022/02/02 13:24:01;;;;;;;3.95;0.50;;;9.80;86.50;;;;;;4999863;28;20489;-85
2022/02/02 13:29:38;;;;;;;2.42;0.50;;;9.70;86.70;;;;;;5003545;28;20052;-82
2022/02/02 13:55:12;;;;;;;2.28;0.82;;;9.80;85.70;;;;;;5008470;28;20052;-84
2022/02/02 14:00:37;;;;;;;3.90;0.55;;;9.80;86.00;;;;;;5004509;28;20077;-87
2022/02/02 14:06:03;;;;;;;9.35;1.33;;;9.80;85.90;;;;;;4996314;28;20449;-83
2022/02/02 14:33:42;;;;;;;7.53;1.02;;;9.90;84.40;;;;;;4987948;28;20143;-85
2022/02/02 14:36:11;;;;;;;4.05;0.73;;;9.90;84.10;;;;;;4999328;28;20501;-85
2022/02/02 14:38:47;;;;;;;3.47;0.60;;;9.90;83.90;;;;;;4982854;28;20071;-85
2022/02/02 14:43:54;;;;;;;3.08;0.65;;;9.90;84.40;;;;;;4998391;28;20112;-85
2022/02/02 14:46:58;;;;;;;5.80;0.55;;;9.90;84.40;;;;;;4983676;28;20042;-85
2022/02/02 14:49:27;;;;;;;5.15;0.93;;;9.90;84.40;;;;;;4997960;28;20494;-84
2022/02/02 14:52:06;;;;;;;2.65;0.40;;;9.90;84.30;;;;;;4984000;28;20069;-85
2022/02/02 15:30:09;;;;;;;3.65;0.73;;;9.70;85.50;;;;;;4955364;29;20054;-87
2022/02/02 15:32:41;;;;;;;3.83;0.45;;;9.70;85.50;;;;;;4940872;29;20053;-88
2022/02/02 15:35:09;;;;;;;3.63;1.02;;;9.70;85.30;;;;;;4978007;28;20045;-87
2022/02/02 15:37:47;;;;;;;8.88;1.10;;;9.70;85.10;;;;;;4985263;28;20055;-88
2022/02/02 15:40:16;;;;;;;4.93;0.90;;;9.70;85.10;;;;;;5001663;28;20046;-87
2022/02/02 15:42:59;;;;;;;4.97;0.70;;;9.70;85.10;;;;;;5017394;28;20057;-86
2022/02/02 15:58:54;;;;;;;2.35;0.43;;;9.40;86.20;;;;;;5017265;28;20064;-88
2022/02/02 16:04:12;;;;;;;1.80;0.28;;;9.30;86.50;;;;;;5016584;28;20160;-85
2022/02/02 16:06:40;;;;;;;1.77;0.30;;;9.20;86.60;;;;;;4985157;28;20056;-83
2022/02/02 16:11:37;;;;;;;2.45;1.30;;;9.20;86.90;;;;;;5000138;28;20387;-86
2022/02/02 16:14:07;;;;;;;0.98;0.17;;;9.10;87.00;;;;;;5016272;28;20132;-84
2022/02/02 16:19:31;;;;;;;5.78;0.63;;;9.10;87.30;;;;;;5000479;28;20490;-86
2022/02/02 16:36:02;;;;;;;4.32;1.10;;;9.00;87.30;;;;;;4996622;28;20042;-83
2022/02/02 16:38:33;;;;;;;5.47;1.30;;;9.00;87.50;;;;;;4982096;28;20124;-82
2022/02/02 16:41:06;;;;;;;5.75;0.65;;;8.90;87.60;;;;;;5012838;28;20375;-83
2022/02/02 16:43:33;;;;;;;5.18;0.80;;;8.90;88.50;;;;;;4997176;28;20053;-84
2022/02/02 16:46:00;;;;;;;5.70;0.73;;;8.80;88.10;;;;;;4948316;28;20131;-83
2022/02/02 16:48:27;;;;;;;3.88;0.85;;;8.80;88.30;;;;;;4980178;28;20054;-87
2022/02/02 16:51:15;;;;;;;5.38;0.77;;;8.70;88.40;;;;;;4996847;28;20398;-87
2022/02/02 16:53:48;;;;;;;2.75;0.43;;;8.70;88.60;;;;;;4997011;28;20144;-90
2022/02/02 16:56:43;;;;;;;4.80;0.50;;;8.70;88.70;;;;;;4996589;28;20069;-84
2022/02/02 17:24:54;;;;;;;2.33;0.40;;;8.70;89.50;;;;;;4995955;28;20565;-86
2022/02/02 17:35:21;;;;;;;0.57;0.10;;;8.80;89.80;;;;;;4996041;28;20450;-85
2022/02/02 17:38:10;;;;;;;2.13;0.30;;;8.80;89.90;;;;;;5013643;28;20046;-83
2022/02/02 17:43:39;;;;;;;1.42;0.25;;;8.80;90.00;;;;;;4996437;28;20066;-80
2022/02/02 17:56:14;;;;;;;3.17;0.55;;;8.80;90.00;;;;;;4994730;28;20403;-85
2022/02/02 18:18:31;;;;;;;1.10;0.28;;;8.70;90.40;;;;;;4966115;28;20054;-84
2022/02/02 18:19:57;;;;;;;1.50;0.30;;;8.70;90.40;;;;;;4989801;28;20089;-91
2022/02/02 18:22:29;;;;;;;1.63;0.30;;;8.70;90.40;;;;;;4996530;28;20109;-89
2022/02/02 18:25:13;;;;;;;4.25;1.15;;;8.80;90.40;;;;;;5011988;28;20042;-92
2022/02/02 18:30:57;;;;;;;4.35;0.70;;;8.70;90.40;;;;;;5012825;28;20048;-86
2022/02/02 19:05:58;;;;;;;8.60;3.05;;;8.80;90.80;;;;;;4998124;28;20133;-82
2022/02/02 19:56:49;;;;;;;5.30;2.63;;;9.00;91.50;;;;;;5016301;28;20045;-82
2022/02/02 20:04:59;;;;;;;9.85;3.42;;;9.00;91.60;;;;;;5016143;28;20052;-80
2022/02/02 20:07:42;;;;;;;4.93;2.53;;;9.00;91.60;;;;;;4999949;28;20486;-83
2022/02/02 20:12:40;;;;;;;8.23;4.20;;;9.10;91.80;;;;;;5016112;28;20095;-87
2022/02/02 20:15:10;;;;;;;6.65;3.70;;;9.10;91.80;;;;;;4999798;28;20429;-83
2022/02/02 20:17:38;;;;;;;6.95;4.30;;;9.10;91.80;;;;;;4984649;28;20064;-84
2022/02/02 20:20:18;;;;;;;9.18;4.38;;;9.10;91.80;;;;;;4999982;28;20148;-84
2022/02/02 20:23:03;;;;;;;8.90;5.30;;;9.10;91.90;;;;;;5014830;28;20053;-84
2022/02/02 20:25:47;;;;;;;9.93;4.72;;;9.10;92.00;;;;;;5016029;28;20049;-84
2022/02/02 20:28:20;;;;;;;11.77;5.82;;;9.20;92.00;;;;;;5016977;28;20060;-82
2022/02/02 20:30:47;;;;;;;11.00;6.03;;;9.10;92.10;;;;;;5000047;28;20037;-82
2022/02/02 20:33:15;;;;;;;11.68;6.50;;;9.20;92.10;;;;;;5000352;28;20046;-84
2022/02/02 20:35:42;;;;;;;11.93;6.28;;;9.10;92.10;;;;;;5000541;28;20444;-85
2022/02/02 20:38:11;;;;;;;11.43;6.63;;;9.10;92.20;;;;;;4999675;28;20042;-81
2022/02/02 20:40:39;;;;;;;12.00;7.60;;;9.10;92.30;;;;;;4999724;28;20047;-81
2022/02/02 20:43:10;;;;;;;13.32;7.80;;;9.20;92.40;;;;;;5016897;28;20431;-81
2022/02/02 21:05:22;;;;;;;11.65;6.88;;;9.10;92.80;;;;;;5016869;28;20508;-90
2022/02/02 21:10:35;;;;;;;16.83;9.48;;;9.10;92.90;;;;;;5015403;28;20496;-83
2022/02/02 21:15:54;;;;;;;16.63;8.18;;;9.10;93.00;;;;;;5002391;28;20137;-84
2022/02/02 21:18:30;;;;;;;17.60;9.57;;;9.10;93.10;;;;;;5017165;28;20084;-81
2022/02/02 21:21:16;;;;;;;18.02;8.57;;;9.20;93.20;;;;;;4999970;28;20049;-84
2022/02/02 21:29:17;;;;;;;24.20;11.07;;;9.10;93.30;;;;;;5015267;28;20052;-83
2022/02/02 21:31:44;;;;;;;17.00;9.23;;;9.10;93.40;;;;;;4999830;28;20042;-86
2022/02/02 21:34:12;;;;;;;14.98;8.52;;;9.20;93.40;;;;;;5015967;28;20106;-82
2022/02/02 21:36:39;;;;;;;19.20;9.27;;;9.20;93.40;;;;;;4999133;28;20041;-82
2022/02/02 21:39:09;;;;;;;18.58;8.75;;;9.20;93.40;;;;;;4999462;28;20053;-80
2022/02/02 21:41:39;;;;;;;15.55;8.82;;;9.10;93.40;;;;;;4999502;28;20041;-82
2022/02/02 21:44:11;;;;;;;19.73;10.40;;;9.10;93.50;;;;;;5015009;28;20041;-86
2022/02/02 21:46:46;;;;;;;18.30;10.15;;;9.10;93.60;;;;;;4999353;28;20054;-83
2022/02/02 21:49:20;;;;;;;18.25;8.88;;;9.10;93.60;;;;;;4997950;28;20464;-81
2022/02/02 21:51:58;;;;;;;18.83;8.77;;;9.10;93.70;;;;;;5000868;28;20104;-84
2022/02/02 21:54:27;;;;;;;18.83;9.35;;;9.10;93.70;;;;;;5018253;28;20060;-83
2022/02/02 21:56:55;;;;;;;16.30;7.93;;;9.10;93.70;;;;;;5002698;28;20045;-85
2022/02/02 21:59:23;;;;;;;17.88;8.65;;;9.20;93.80;;;;;;5018832;28;20045;-85
2022/02/02 22:01:52;;;;;;;17.90;8.63;;;9.20;93.80;;;;;;5018946;28;20768;-86
2022/02/02 22:04:24;;;;;;;18.92;9.20;;;9.20;93.80;;;;;;5018826;28;20045;-84
2022/02/02 22:06:53;;;;;;;19.15;9.70;;;9.20;93.80;;;;;;5018449;28;20052;-85
2022/02/02 22:09:20;;;;;;;17.17;8.18;;;9.20;93.90;;;;;;5003133;28;20494;-87
2022/02/02 22:11:50;;;;;;;18.17;9.73;;;9.20;93.90;;;;;;5018357;28;20046;-84
2022/02/02 22:14:21;;;;;;;18.95;8.82;;;9.20;93.90;;;;;;5018195;28;20042;-87
2022/02/02 22:16:52;;;;;;;16.02;7.88;;;9.30;93.90;;;;;;5019219;28;20323;-85
2022/02/02 22:19:22;;;;;;;18.00;8.90;;;9.30;93.90;;;;;;5001482;28;20049;-86
2022/02/02 22:21:49;;;;;;;19.08;10.23;;;9.30;93.90;;;;;;5002603;28;20069;-86
2022/02/02 22:24:23;;;;;;;22.17;9.80;;;9.30;94.00;;;;;;5002830;28;20049;-86
2022/02/02 22:26:52;;;;;;;19.95;10.07;;;9.30;94.00;;;;;;5018788;28;20055;-87
2022/02/02 22:29:20;;;;;;;17.83;9.38;;;9.30;94.00;;;;;;5018790;28;20046;-87
2022/02/02 22:31:47;;;;;;;20.25;10.38;;;9.30;94.00;;;;;;5018634;28;20429;-86
2022/02/02 22:34:14;;;;;;;17.27;8.35;;;9.30;94.00;;;;;;5018299;28;20137;-87
2022/02/02 22:36:42;;;;;;;15.90;7.13;;;9.30;94.00;;;;;;5018684;28;20049;-86
2022/02/02 22:39:10;;;;;;;16.80;8.38;;;9.30;94.00;;;;;;5018495;28;20140;-85
2022/02/02 22:41:44;;;;;;;22.42;11.55;;;9.30;94.10;;;;;;5020284;28;20041;-86
2022/02/02 22:44:15;;;;;;;22.98;12.02;;;9.30;94.20;;;;;;5019699;28;20140;-86
2022/02/02 22:46:44;;;;;;;20.48;11.13;;;9.30;94.10;;;;;;5004151;28;20099;-86
2022/02/02 22:49:13;;;;;;;21.85;12.13;;;9.30;94.10;;;;;;5002133;28;20050;-85
2022/02/02 22:51:44;;;;;;;25.50;13.55;;;9.30;94.20;;;;;;5002758;28;20038;-86
2022/02/02 22:54:11;;;;;;;25.63;14.43;;;9.30;94.30;;;;;;5018102;28;20080;-86
2022/02/02 22:56:39;;;;;;;29.02;14.98;;;9.30;94.40;;;;;;5002149;28;20056;-87
2022/02/02 22:59:06;;;;;;;25.30;14.10;;;9.30;94.50;;;;;;5018706;28;20076;-86
2022/02/02 23:01:44;;;;;;;29.38;15.50;;;9.20;94.50;;;;;;5018469;28;20037;-87
2022/02/02 23:04:15;;;;;;;25.38;13.38;;;9.20;94.60;;;;;;5017669;28;20041;-87
2022/02/02 23:06:45;;;;;;;25.83;14.23;;;9.20;94.60;;;;;;5018240;28;20045;-87
2022/02/02 23:09:17;;;;;;;22.15;12.20;;;9.20;94.60;;;;;;5018664;28;20056;-86
2022/02/02 23:11:45;;;;;;;22.45;11.30;;;9.30;94.60;;;;;;4986275;28;20045;-86
2022/02/02 23:14:20;;;;;;;23.38;12.15;;;9.30;94.60;;;;;;5018183;28;20136;-86
2022/02/02 23:16:49;;;;;;;27.65;14.13;;;9.30;94.60;;;;;;5001633;28;20140;-87
2022/02/02 23:19:17;;;;;;;21.75;11.35;;;9.30;94.70;;;;;;5001864;28;20041;-87
2022/02/02 23:21:47;;;;;;;23.85;14.00;;;9.30;94.60;;;;;;5017843;28;20056;-87
2022/02/02 23:24:17;;;;;;;23.58;13.10;;;9.30;94.60;;;;;;5002162;28;20045;-88
2022/02/02 23:26:51;;;;;;;25.20;13.05;;;9.30;94.70;;;;;;5017988;28;20049;-87
2022/02/02 23:29:21;;;;;;;22.90;13.07;;;9.40;94.70;;;;;;5017887;28;20115;-88
2022/02/02 23:31:49;;;;;;;26.73;13.57;;;9.30;94.70;;;;;;5018803;28;20115;-87
2022/02/02 23:34:16;;;;;;;24.63;13.93;;;9.40;94.70;;;;;;5002186;28;20065;-87
2022/02/02 23:36:53;;;;;;;18.67;10.52;;;9.40;94.80;;;;;;5002355;28;20049;-88
2022/02/02 23:39:22;;;;;;;22.63;12.73;;;9.40;94.70;;;;;;5017838;28;20140;-88
2022/02/02 23:44:19;;;;;;;22.73;13.95;;;9.40;94.70;;;;;;5017301;28;20148;-86
2022/02/02 23:46:53;;;;;;;21.92;13.60;;;9.40;94.70;;;;;;5016894;28;20072;-88
2022/02/02 23:49:33;;;;;;;21.38;13.00;;;9.30;94.70;;;;;;5013543;28;20096;-87
2022/02/02 23:52:03;;;;;;;20.73;12.93;;;9.30;94.80;;;;;;4997503;28;20050;-86
2022/02/02 23:54:34;;;;;;;25.67;14.93;;;9.30;94.80;;;;;;4997460;28;20046;-87
2022/02/02 23:57:17;;;;;;;22.15;13.43;;;9.30;94.90;;;;;;4997547;28;20045;-87
